Time,TemperatureF,DewpointF,PressureIn,WindDirection,WindDirectionDegrees,WindSpeedMPH,WindSpeedGustMPH,Humidity,HourlyPrecipIn,Conditions,Clouds,dailyrainin,SoftwareType,DateUTC
2013-07-21 00:00:00,74.0,-99.9,-100.00,SSE,158,3.0,5.0,-999,0.00,,,0.00,,2013-07-21 05:00:00,
2013-07-21 00:43:00,74.0,-99.9,-100.00,SSE,158,3.0,5.0,-999,0.00,,,0.00,,2013-07-21 05:43:00,
2013-07-21 00:52:00,74.0,-99.9,-100.00,SSE,158,3.0,5.0,-999,0.00,,,0.00,,2013-07-21 05:52:00,
2013-07-21 02:00:00,70.0,-99.9,-100.00,SSE,162,1.0,3.0,-999,0.00,,,0.00,,2013-07-21 07:00:00,
2013-07-21 02:43:00,70.0,-99.9,-100.00,SSE,162,1.0,3.0,-999,0.00,,,0.00,,2013-07-21 07:43:00,
2013-07-21 02:53:00,70.0,-99.9,-100.00,SSE,162,1.0,3.0,-999,0.00,,,0.00,,2013-07-21 07:53:00,
2013-07-21 03:00:00,69.0,-99.9,-100.00,South,170,2.0,4.0,-999,0.00,,,0.00,,2013-07-21 08:00:00,
2013-07-21 03:43:00,69.0,-99.9,-100.00,South,170,2.0,4.0,-999,0.00,,,0.00,,2013-07-21 08:43:00,
2013-07-21 03:52:00,69.0,-99.9,-100.00,South,170,2.0,4.0,-999,0.00,,,0.00,,2013-07-21 08:52:00,
2013-07-21 04:00:00,68.0,-99.9,-100.00,SSE,163,2.0,3.0,-999,0.00,,,0.00,,2013-07-21 09:00:00,
2013-07-21 04:42:00,68.0,-99.9,-100.00,SSE,163,2.0,3.0,-999,0.00,,,0.00,,2013-07-21 09:42:00,
2013-07-21 04:52:00,68.0,-99.9,-100.00,SSE,163,2.0,3.0,-999,0.00,,,0.00,,2013-07-21 09:52:00,
2013-07-21 05:00:00,68.0,-99.9,-100.00,SSE,157,3.0,5.0,-999,0.00,,,0.00,,2013-07-21 10:00:00,
2013-07-21 05:43:00,68.0,-99.9,-100.00,SSE,157,3.0,5.0,-999,0.00,,,0.00,,2013-07-21 10:43:00,
2013-07-21 05:53:00,68.0,-99.9,-100.00,SSE,157,3.0,5.0,-999,0.00,,,0.00,,2013-07-21 10:53:00,
2013-07-21 06:00:00,67.0,-99.9,-100.00,SE,143,3.0,5.0,-999,0.00,,,0.00,,2013-07-21 11:00:00,
2013-07-21 06:43:00,67.0,-99.9,-100.00,SE,143,3.0,5.0,-999,0.00,,,0.00,,2013-07-21 11:43:00,
2013-07-21 06:52:00,67.0,-99.9,-100.00,SE,143,3.0,5.0,-999,0.00,,,0.00,,2013-07-21 11:52:00,
2013-07-21 08:00:00,72.0,-99.9,-100.00,SE,134,4.0,6.0,-999,0.00,,,0.00,,2013-07-21 13:00:00,
2013-07-21 08:43:00,72.0,-99.9,-100.00,SE,134,4.0,6.0,-999,0.00,,,0.00,,2013-07-21 13:43:00,
2013-07-21 08:53:00,72.0,-99.9,-100.00,SE,134,4.0,6.0,-999,0.00,,,0.00,,2013-07-21 13:53:00,
2013-07-21 09:00:00,78.0,-99.9,-100.00,SSE,163,3.0,8.0,-999,0.00,,,0.00,,2013-07-21 14:00:00,
2013-07-21 09:43:00,78.0,-99.9,-100.00,SSE,163,3.0,8.0,-999,0.00,,,0.00,,2013-07-21 14:43:00,
2013-07-21 09:53:00,78.0,-99.9,-100.00,SSE,163,3.0,8.0,-999,0.00,,,0.00,,2013-07-21 14:53:00,
2013-07-21 10:00:00,80.0,-99.9,-100.00,SSE,156,4.0,8.0,-999,0.00,,,0.00,,2013-07-21 15:00:00,
2013-07-21 10:43:00,80.0,-99.9,-100.00,SSE,156,4.0,8.0,-999,0.00,,,0.00,,2013-07-21 15:43:00,
2013-07-21 10:53:00,80.0,-99.9,-100.00,SSE,156,4.0,8.0,-999,0.00,,,0.00,,2013-07-21 15:53:00,
2013-07-21 11:00:00,80.0,-99.9,-100.00,SE,141,5.0,10.0,-999,0.00,,,0.00,,2013-07-21 16:00:00,
2013-07-21 11:43:00,80.0,-99.9,-100.00,SE,141,5.0,10.0,-999,0.00,,,0.00,,2013-07-21 16:43:00,
2013-07-21 11:52:00,80.0,-99.9,-100.00,SE,141,5.0,10.0,-999,0.00,,,0.00,,2013-07-21 16:52:00,
2013-07-21 12:00:00,79.0,-99.9,-100.00,ESE,109,4.0,7.0,-999,0.00,,,0.00,,2013-07-21 17:00:00,
2013-07-21 12:43:00,79.0,-99.9,-100.00,ESE,109,4.0,7.0,-999,0.00,,,0.00,,2013-07-21 17:43:00,
2013-07-21 12:53:00,79.0,-99.9,-100.00,ESE,109,4.0,7.0,-999,0.00,,,0.00,,2013-07-21 17:53:00,
2013-07-21 13:00:00,77.0,-99.9,-100.00,SE,130,4.0,6.0,-999,0.00,,,0.00,,2013-07-21 18:00:00,
2013-07-21 13:43:00,77.0,-99.9,-100.00,SE,130,4.0,6.0,-999,0.00,,,0.00,,2013-07-21 18:43:00,
2013-07-21 13:52:00,77.0,-99.9,-100.00,SE,130,4.0,6.0,-999,0.00,,,0.00,,2013-07-21 18:52:00,
2013-07-21 14:00:00,71.0,-99.9,-100.00,SW,223,1.0,7.0,-999,0.06,,,0.06,,2013-07-21 19:00:00,
2013-07-21 14:42:00,71.0,-99.9,-100.00,SW,223,1.0,7.0,-999,0.06,,,0.06,,2013-07-21 19:42:00,
2013-07-21 14:52:00,71.0,-99.9,-100.00,SW,223,1.0,7.0,-999,0.06,,,0.06,,2013-07-21 19:52:00,
2013-07-21 15:00:00,71.0,-99.9,-100.00,SSE,163,6.0,11.0,-999,0.08,,,0.14,,2013-07-21 20:00:00,
2013-07-21 15:43:00,71.0,-99.9,-100.00,SSE,163,6.0,11.0,-999,0.08,,,0.14,,2013-07-21 20:43:00,
2013-07-21 15:52:00,71.0,-99.9,-100.00,SSE,163,6.0,11.0,-999,0.08,,,0.14,,2013-07-21 20:52:00,
2013-07-21 16:00:00,71.0,-99.9,-100.00,East,96,0.0,6.0,-999,0.05,,,0.19,,2013-07-21 21:00:00,
2013-07-21 16:43:00,71.0,-99.9,-100.00,East,96,0.0,6.0,-999,0.05,,,0.19,,2013-07-21 21:43:00,
2013-07-21 16:52:00,71.0,-99.9,-100.00,East,96,0.0,6.0,-999,0.05,,,0.19,,2013-07-21 21:52:00,
2013-07-21 17:00:00,71.0,-99.9,-100.00,SSE,164,3.0,7.0,-999,0.00,,,0.19,,2013-07-21 22:00:00,
2013-07-21 17:43:00,71.0,-99.9,-100.00,SSE,164,3.0,7.0,-999,0.00,,,0.19,,2013-07-21 22:43:00,
2013-07-21 17:52:00,71.0,-99.9,-100.00,SSE,164,3.0,7.0,-999,0.00,,,0.19,,2013-07-21 22:52:00,
2013-07-21 18:00:00,73.0,-99.9,-100.00,South,172,4.0,9.0,-999,0.00,,,0.19,,2013-07-21 23:00:00,
2013-07-21 18:43:00,73.0,-99.9,-100.00,South,172,4.0,9.0,-999,0.00,,,0.19,,2013-07-21 23:43:00,
2013-07-21 18:53:00,73.0,-99.9,-100.00,South,172,4.0,9.0,-999,0.00,,,0.19,,2013-07-21 23:53:00,
2013-07-21 19:00:00,74.0,-99.9,-100.00,SSW,193,3.0,6.0,-999,0.01,,,0.20,,2013-07-22 00:00:00,
2013-07-21 19:42:00,74.0,-99.9,-100.00,SSW,193,3.0,6.0,-999,0.01,,,0.20,,2013-07-22 00:42:00,
2013-07-21 19:53:00,74.0,-99.9,-100.00,SSW,193,3.0,6.0,-999,0.01,,,0.20,,2013-07-22 00:53:00,
2013-07-21 20:00:00,72.0,-99.9,-100.00,SSE,157,4.0,7.0,-999,0.00,,,0.20,,2013-07-22 01:00:00,
2013-07-21 20:42:00,72.0,-99.9,-100.00,SSE,157,4.0,7.0,-999,0.00,,,0.20,,2013-07-22 01:42:00,
2013-07-21 20:52:00,72.0,-99.9,-100.00,SSE,157,4.0,7.0,-999,0.00,,,0.20,,2013-07-22 01:52:00,
2013-07-21 22:00:00,69.0,-99.9,-100.00,SSE,153,4.0,5.0,-999,-99.99,,,0.20,,2013-07-22 03:00:00,
2013-07-21 22:43:00,69.0,-99.9,-100.00,SSE,153,4.0,5.0,-999,-99.99,,,0.20,,2013-07-22 03:43:00,
2013-07-21 22:53:00,69.0,-99.9,-100.00,SSE,153,4.0,5.0,-999,-99.99,,,0.20,,2013-07-22 03:53:00,
2013-07-21 23:00:00,68.0,-99.9,-100.00,SSE,150,4.0,7.0,-999,0.00,,,0.20,,2013-07-22 04:00:00,
2013-07-21 23:43:00,68.0,-99.9,-100.00,SSE,150,4.0,7.0,-999,0.00,,,0.20,,2013-07-22 04:43:00,